Time;durP1;ratioP1;P1;durP2;ratioP2;P2;SDS_P1;SDS_P2;PMS_P1;PMS_P2;Temp;Humidity;BMP_temperature;BMP_pressure;BME280_temperature;BME280_humidity;BME280_pressure;Samples;Min_cycle;Max_cycle;Signal;HPM_P1;HPM_P2
2024/04/10 00:01:06;;;;;;;9.90;4.97;;;;;;;9.48;100.00;101459.22;10711877;26;20017;-68
2024/04/10 00:06:05;;;;;;;8.13;5.80;;;;;;;9.48;100.00;101461.16;10709222;26;20013;-68
2024/04/10 00:11:03;;;;;;;9.23;5.35;;;;;;;9.51;100.00;101462.47;10710431;26;20021;-70
2024/04/10 00:16:08;;;;;;;12.35;6.07;;;;;;;9.38;100.00;101448.44;10701464;27;20077;-71
2024/04/10 00:21:05;;;;;;;6.57;5.43;;;;;;;9.37;100.00;101476.81;10704288;26;19999;-72
2024/04/10 00:26:04;;;;;;;6.57;5.70;;;;;;;9.42;100.00;101484.13;10718204;27;20109;-70
2024/04/10 00:31:05;;;;;;;8.23;5.82;;;;;;;9.44;100.00;101474.56;10704157;27;19998;-70
2024/04/10 00:36:03;;;;;;;14.13;5.65;;;;;;;9.45;100.00;101476.19;10709954;27;20356;-71
2024/04/10 00:41:03;;;;;;;10.63;5.13;;;;;;;9.36;100.00;101494.31;10704890;26;21802;-71
2024/04/10 00:46:03;;;;;;;9.00;6.25;;;;;;;9.37;100.00;101501.38;10716104;26;20021;-71
2024/04/10 00:51:00;;;;;;;9.50;5.00;;;;;;;9.32;100.00;101504.19;10712478;26;19999;-71
2024/04/10 00:55:57;;;;;;;8.40;5.03;;;;;;;9.34;100.00;101517.53;10704031;26;20463;-70
2024/04/10 01:00:54;;;;;;;10.88;5.88;;;;;;;9.38;100.00;101530.31;10703019;26;20010;-70
2024/04/10 01:05:59;;;;;;;7.90;5.32;;;;;;;9.36;100.00;101526.25;10708040;26;20015;-70
2024/04/10 01:11:01;;;;;;;9.52;5.25;;;;;;;9.28;100.00;101522.22;10712322;26;19999;-69
2024/04/10 01:15:58;;;;;;;11.18;5.88;;;;;;;9.27;100.00;101534.25;10702604;26;20006;-71
2024/04/10 01:20:55;;;;;;;13.68;5.80;;;;;;;9.26;100.00;101536.19;10692143;26;20014;-71
2024/04/10 01:25:52;;;;;;;11.95;5.97;;;;;;;9.30;100.00;101528.22;10715238;26;20799;-71
2024/04/10 01:30:50;;;;;;;8.40;5.38;;;;;;;9.31;100.00;101548.16;10708560;26;20003;-70
2024/04/10 01:35:47;;;;;;;9.88;5.97;;;;;;;9.33;100.00;101554.13;10703993;27;20006;-72
2024/04/10 01:40:44;;;;;;;8.73;5.50;;;;;;;9.36;100.00;101570.75;10713568;26;20007;-72
2024/04/10 01:45:41;;;;;;;10.77;5.90;;;;;;;9.35;100.00;101571.00;10705255;26;20366;-72
2024/04/10 01:50:38;;;;;;;12.70;5.75;;;;;;;9.39;100.00;101564.69;10705450;26;20038;-72
2024/04/10 01:55:36;;;;;;;8.52;6.03;;;;;;;9.35;100.00;101588.22;10707108;26;20119;-72
2024/04/10 02:00:35;;;;;;;9.93;6.28;;;;;;;9.33;100.00;101576.78;10714193;26;20013;-70
2024/04/10 02:05:32;;;;;;;11.50;5.95;;;;;;;9.33;100.00;101579.50;10698586;26;20003;-70
2024/04/10 02:10:30;;;;;;;9.18;5.93;;;;;;;9.37;100.00;101587.91;10702095;26;20076;-71
2024/04/10 02:15:27;;;;;;;10.57;5.90;;;;;;;9.33;100.00;101593.16;10696140;26;20021;-71
2024/04/10 02:20:24;;;;;;;12.77;6.05;;;;;;;9.32;100.00;101607.88;10697715;26;20088;-70
2024/04/10 02:25:21;;;;;;;7.15;5.78;;;;;;;9.28;100.00;101604.09;10730400;26;21540;-71
2024/04/10 02:30:19;;;;;;;9.15;6.25;;;;;;;9.22;100.00;101630.63;10707266;26;20017;-71
2024/04/10 02:35:19;;;;;;;9.23;6.20;;;;;;;8.78;100.00;101664.25;10700844;26;20623;-70
2024/04/10 02:40:16;;;;;;;12.07;5.45;;;;;;;8.71;100.00;101690.19;10707459;26;20002;-70
2024/04/10 02:45:13;;;;;;;9.13;5.38;;;;;;;8.72;100.00;101705.44;10727479;26;20394;-71
2024/04/10 02:50:11;;;;;;;13.05;5.07;;;;;;;8.79;100.00;101714.13;10722559;26;20038;-72
2024/04/10 02:55:08;;;;;;;8.63;4.80;;;;;;;8.70;100.00;101722.09;10705051;26;20092;-73
2024/04/10 03:00:08;;;;;;;8.07;4.75;;;;;;;8.64;100.00;101734.94;10707177;27;20022;-72
2024/04/10 03:05:05;;;;;;;9.57;4.82;;;;;;;8.61;100.00;101751.88;10717463;27;20332;-72
2024/04/10 03:10:04;;;;;;;8.35;4.70;;;;;;;8.65;100.00;101730.28;10719343;26;20007;-70
2024/04/10 03:15:01;;;;;;;5.72;4.50;;;;;;;8.80;100.00;101737.59;10688435;26;20011;-72
2024/04/10 03:19:59;;;;;;;11.27;5.13;;;;;;;8.79;100.00;101746.84;10708153;27;20023;-72
2024/04/10 03:24:56;;;;;;;6.90;4.50;;;;;;;8.81;100.00;101769.22;10710438;26;20346;-71
2024/04/10 03:29:53;;;;;;;6.00;4.90;;;;;;;8.66;100.00;101763.81;10699535;26;20026;-72
2024/04/10 03:34:50;;;;;;;10.85;4.68;;;;;;;8.78;100.00;101767.06;10709657;26;20018;-73
2024/04/10 03:39:48;;;;;;;9.90;4.80;;;;;;;8.68;100.00;101786.16;10709018;27;20014;-72
2024/04/10 03:44:45;;;;;;;9.80;5.22;;;;;;;8.78;100.00;101799.78;10704683;26;20018;-71
2024/04/10 03:49:42;;;;;;;6.35;5.10;;;;;;;8.75;100.00;101789.41;10689992;27;20006;-73
2024/04/10 03:54:40;;;;;;;5.85;4.78;;;;;;;8.64;100.00;101783.19;10695561;27;20022;-72
2024/04/10 03:59:37;;;;;;;6.95;5.70;;;;;;;8.53;100.00;101776.97;10697662;27;20164;-73
2024/04/10 04:04:34;;;;;;;6.10;5.43;;;;;;;8.66;100.00;101796.53;10695460;27;20010;-72
2024/04/10 04:09:32;;;;;;;7.80;5.25;;;;;;;8.66;100.00;101797.38;10701945;27;20479;-72
2024/04/10 04:14:30;;;;;;;8.70;5.90;;;;;;;8.65;100.00;101809.34;10711311;27;20015;-71
2024/04/10 04:19:28;;;;;;;7.22;5.65;;;;;;;8.68;100.00;101816.16;10703431;26;20014;-73
2024/04/10 04:24:25;;;;;;;6.93;5.40;;;;;;;8.74;100.00;101836.88;10689016;27;20080;-73
2024/04/10 04:29:22;;;;;;;8.50;5.93;;;;;;;8.78;100.00;101832.50;10698264;27;20002;-74
2024/04/10 04:34:20;;;;;;;6.38;5.50;;;;;;;8.72;100.00;101858.16;10706989;26;20136;-72
2024/04/10 04:39:17;;;;;;;6.40;5.82;;;;;;;8.71;100.00;101886.53;10710218;26;20727;-73
2024/04/10 04:44:14;;;;;;;10.85;6.30;;;;;;;8.58;100.00;101894.16;10705640;26;20085;-73
2024/04/10 04:49:11;;;;;;;6.22;5.60;;;;;;;8.38;100.00;101932.34;10699095;27;20069;-73
2024/04/10 04:54:08;;;;;;;9.30;6.60;;;;;;;8.17;100.00;101954.13;10702154;26;20084;-72
2024/04/10 04:59:05;;;;;;;7.38;5.50;;;;;;;8.22;100.00;101967.75;10685997;26;20019;-74
2024/04/10 05:09:20;;;;;;;10.00;5.47;;;;;;;8.46;100.00;101999.13;10703023;27;21242;-73
2024/04/10 05:14:17;;;;;;;9.00;6.03;;;;;;;8.32;100.00;102010.53;10717231;26;20014;-72
2024/04/10 05:19:14;;;;;;;11.27;6.18;;;;;;;8.26;100.00;102043.47;10703499;27;20025;-72
2024/04/10 05:24:11;;;;;;;8.10;5.60;;;;;;;8.16;100.00;102050.53;10711017;26;20076;-72
2024/04/10 05:29:09;;;;;;;7.03;6.07;;;;;;;8.18;100.00;102075.63;10699346;27;20010;-73
2024/04/10 05:34:06;;;;;;;7.75;5.95;;;;;;;8.25;100.00;102080.00;10710614;26;20394;-73
2024/04/10 05:39:03;;;;;;;7.38;6.22;;;;;;;8.29;100.00;102070.22;10699750;26;20025;-72
2024/04/10 05:44:00;;;;;;;7.57;5.60;;;;;;;8.31;100.00;102087.09;10706847;26;20053;-71
2024/04/10 05:48:58;;;;;;;11.57;6.40;;;;;;;8.45;100.00;102112.78;10718789;26;20024;-71
2024/04/10 05:53:55;;;;;;;9.50;6.20;;;;;;;8.47;100.00;102116.06;10690775;26;20494;-72
2024/04/10 05:58:52;;;;;;;10.57;6.10;;;;;;;8.56;100.00;102113.63;10702642;26;20018;-71
2024/04/10 06:03:51;;;;;;;10.93;5.85;;;;;;;8.57;100.00;102127.00;10693697;26;20010;-72
2024/04/10 06:08:49;;;;;;;10.45;6.13;;;;;;;8.60;100.00;102137.34;10696471;26;19998;-71
2024/04/10 06:13:51;;;;;;;12.68;6.47;;;;;;;8.74;100.00;102134.09;10701087;26;20138;-71
2024/04/10 06:18:48;;;;;;;;;;;;;;;8.82;100.00;102147.22;10717775;26;20013;-71
2024/04/10 06:23:45;;;;;;;11.20;6.28;;;;;;;8.94;100.00;102157.88;10711287;27;19927;-72
2024/04/10 06:28:43;;;;;;;11.95;7.10;;;;;;;8.98;100.00;102154.31;10712864;26;20607;-72
2024/04/10 06:33:40;;;;;;;9.90;6.30;;;;;;;8.94;100.00;102153.22;10719750;26;20025;-72
2024/04/10 06:38:38;;;;;;;11.13;6.63;;;;;;;8.93;100.00;102162.47;10701824;27;20338;-70
2024/04/10 06:43:35;;;;;;;14.63;7.03;;;;;;;8.99;100.00;102176.97;10695647;26;20589;-71
2024/04/10 06:48:32;;;;;;;11.13;7.28;;;;;;;8.62;100.00;102192.44;10707094;26;20082;-70
2024/04/10 06:53:30;;;;;;;11.63;6.93;;;;;;;8.59;100.00;102200.34;10704763;27;20014;-71
2024/04/10 06:58:29;;;;;;;16.33;6.28;;;;;;;8.78;100.00;102203.38;10706825;26;20075;-72
2024/04/10 07:03:27;;;;;;;13.23;5.90;;;;;;;8.90;100.00;102233.94;10693993;26;20017;-71
2024/04/10 07:08:24;;;;;;;13.52;8.77;;;;;;;9.16;100.00;102210.25;10656155;27;20458;-70
2024/04/10 07:13:21;;;;;;;9.13;6.22;;;;;;;9.16;100.00;102225.81;10693255;27;20048;-70
2024/04/10 07:18:18;;;;;;;10.13;6.50;;;;;;;9.29;100.00;102236.19;10711000;26;20038;-69
2024/04/10 07:23:15;;;;;;;14.80;6.30;;;;;;;9.37;100.00;102243.81;10719792;26;20013;-71
2024/04/10 07:28:13;;;;;;;11.85;6.22;;;;;;;9.56;100.00;102241.41;10717234;26;20010;-70
2024/04/10 07:33:10;;;;;;;10.18;6.78;;;;;;;9.62;100.00;102255.84;10718230;26;20149;-71
2024/04/10 07:38:07;;;;;;;9.20;6.45;;;;;;;9.83;100.00;102279.31;10710824;27;20475;-71
2024/04/10 07:43:04;;;;;;;9.38;6.20;;;;;;;9.76;100.00;102284.25;10719871;26;21336;-70
2024/04/10 07:48:02;;;;;;;10.93;6.30;;;;;;;9.75;100.00;102296.28;10714889;27;20020;-70
2024/04/10 07:52:59;;;;;;;10.68;6.50;;;;;;;9.23;100.00;102308.22;10720130;26;20447;-70
2024/04/10 07:57:56;;;;;;;12.70;6.20;;;;;;;9.05;100.00;102345.84;10717340;27;20021;-70
2024/04/10 08:02:54;;;;;;;11.45;6.82;;;;;;;8.74;100.00;102349.53;10715642;26;20087;-70
2024/04/10 08:07:51;;;;;;;14.43;6.50;;;;;;;8.77;100.00;102362.63;10693742;27;20039;-73
2024/04/10 08:12:49;;;;;;;9.73;6.55;;;;;;;8.77;100.00;102368.09;10691077;27;20053;-69
2024/04/10 08:17:46;;;;;;;12.73;6.00;;;;;;;9.01;100.00;102372.03;10717240;26;20013;-71
2024/04/10 08:22:44;;;;;;;14.30;7.00;;;;;;;9.47;100.00;102385.81;10713166;27;20502;-71
2024/04/10 08:27:41;;;;;;;14.88;6.43;;;;;;;9.97;100.00;102379.88;10709925;27;20018;-71
2024/04/10 08:32:38;;;;;;;15.27;6.43;;;;;;;10.31;100.00;102372.78;10703123;27;20014;-72
2024/04/10 08:37:36;;;;;;;14.95;6.60;;;;;;;10.14;100.00;102377.66;10699929;27;20030;-71
2024/04/10 08:42:35;;;;;;;12.07;6.75;;;;;;;10.34;100.00;102389.72;10711923;26;20002;-72
2024/04/10 08:47:32;;;;;;;9.43;6.30;;;;;;;10.28;100.00;102384.28;10707153;26;20011;-72
2024/04/10 08:52:31;;;;;;;10.43;6.47;;;;;;;10.38;100.00;102399.03;10710761;26;20849;-71
2024/04/10 08:57:28;;;;;;;10.38;6.50;;;;;;;10.49;100.00;102400.66;10724490;27;20461;-71
2024/04/10 09:02:26;;;;;;;13.07;6.57;;;;;;;10.62;100.00;102408.28;10716066;26;20374;-71
2024/04/10 09:07:23;;;;;;;9.57;6.45;;;;;;;10.66;100.00;102417.56;10705375;26;20474;-72
2024/04/10 09:12:24;;;;;;;11.80;6.25;;;;;;;11.05;100.00;102413.38;10713118;27;20013;-72
2024/04/10 09:17:21;;;;;;;17.25;6.50;;;;;;;10.83;100.00;102422.72;10719436;26;20449;-71
2024/04/10 09:22:18;;;;;;;10.80;6.07;;;;;;;10.67;100.00;102435.59;10699784;27;20003;-71
2024/04/10 09:27:17;;;;;;;14.30;6.55;;;;;;;10.92;100.00;102442.13;10712336;26;20020;-72
2024/04/10 09:32:19;;;;;;;9.75;6.30;;;;;;;11.11;100.00;102454.09;10704308;26;20859;-71
2024/04/10 09:37:17;;;;;;;15.05;7.07;;;;;;;11.13;100.00;102476.53;10719752;26;20092;-72
2024/04/10 09:42:26;;;;;;;8.88;6.78;;;;;;;11.27;100.00;102465.81;10718372;26;20026;-72
2024/04/10 09:47:25;;;;;;;17.88;7.28;;;;;;;11.06;100.00;102465.06;10722319;26;20026;-72
2024/04/10 09:52:23;;;;;;;10.52;7.10;;;;;;;10.64;100.00;102493.63;10712058;26;20148;-72
2024/04/10 09:57:20;;;;;;;17.83;8.63;;;;;;;10.88;100.00;102501.25;10725120;26;20002;-72
2024/04/10 10:02:19;;;;;;;14.95;8.05;;;;;;;11.46;100.00;102500.81;10715558;26;20002;-71
2024/04/10 10:07:23;;;;;;;9.27;6.93;;;;;;;11.79;100.00;102497.38;10714862;26;20002;-71
2024/04/10 10:12:27;;;;;;;9.90;7.35;;;;;;;12.40;100.00;102504.38;10718434;26;20025;-70
2024/04/10 10:17:26;;;;;;;14.90;7.35;;;;;;;11.93;100.00;102505.81;10711933;26;20007;-71
2024/04/10 10:22:24;;;;;;;7.53;6.82;;;;;;;12.90;100.00;102500.63;10702229;27;20006;-71
2024/04/10 10:27:23;;;;;;;12.15;7.63;;;;;;;14.65;100.00;102494.47;10697430;26;20038;-71
2024/04/10 10:32:20;;;;;;;12.27;7.88;;;;;;;14.71;100.00;102515.25;10685960;27;20027;-71
2024/04/10 10:37:17;;;;;;;15.45;8.02;;;;;;;12.63;100.00;102518.47;10710481;27;20003;-71
2024/04/10 10:42:14;;;;;;;11.52;7.43;;;;;;;13.21;100.00;102523.94;10712570;26;20042;-71
2024/04/10 10:47:12;;;;;;;9.80;7.40;;;;;;;13.29;100.00;102521.69;10701706;26;20103;-70
2024/04/10 10:52:10;;;;;;;14.25;8.45;;;;;;;13.59;100.00;102526.81;10679738;27;20223;-71
2024/04/10 10:57:07;;;;;;;12.45;7.75;;;;;;;14.64;100.00;102525.84;10703960;27;20006;-71
2024/04/10 11:02:14;;;;;;;10.68;7.13;;;;;;;14.16;100.00;102531.56;10715600;26;19998;-72
2024/04/10 11:07:16;;;;;;;13.35;7.03;;;;;;;13.35;100.00;102534.25;10716895;26;20002;-71
2024/04/10 11:12:16;;;;;;;14.73;7.13;;;;;;;12.68;100.00;102532.16;10713589;26;20463;-70
2024/04/10 11:17:20;;;;;;;11.13;7.10;;;;;;;12.34;100.00;102546.66;10714495;27;20362;-70
2024/04/10 11:22:20;;;;;;;10.55;6.90;;;;;;;12.08;100.00;102554.25;10729019;26;20339;-70
2024/04/10 11:27:19;;;;;;;15.65;6.82;;;;;;;11.79;100.00;102554.09;10719260;26;20018;-71
2024/04/10 11:32:16;;;;;;;12.25;7.05;;;;;;;11.80;100.00;102572.19;10704802;27;20010;-70
2024/04/10 11:37:13;;;;;;;9.55;6.65;;;;;;;11.86;100.00;102560.09;10714262;27;20017;-71
2024/04/10 11:42:11;;;;;;;11.23;6.88;;;;;;;11.88;100.00;102563.41;10713646;26;20159;-71
2024/04/10 11:47:09;;;;;;;12.80;6.63;;;;;;;11.79;100.00;102554.91;10717952;26;20471;-70
2024/04/10 11:52:06;;;;;;;12.05;6.68;;;;;;;11.76;100.00;102582.06;10715521;26;20015;-71
2024/04/10 11:57:05;;;;;;;8.38;6.40;;;;;;;11.58;100.00;102567.88;10717130;26;20081;-70
2024/04/10 12:02:02;;;;;;;10.65;6.10;;;;;;;11.78;100.00;102582.59;10713349;27;20061;-71
2024/04/10 12:07:00;;;;;;;12.05;7.38;;;;;;;12.00;100.00;102574.84;10703641;26;20097;-70
2024/04/10 12:11:57;;;;;;;8.75;5.80;;;;;;;11.94;100.00;102584.19;10724244;26;20041;-70
2024/04/10 12:16:54;;;;;;;12.82;7.85;;;;;;;11.90;100.00;102591.34;10706779;26;20102;-70
2024/04/10 12:21:53;;;;;;;8.45;6.88;;;;;;;14.24;100.00;102588.63;10701613;27;20077;-70
2024/04/10 12:26:50;;;;;;;7.57;5.85;;;;;;;15.41;100.00;102587.81;10701267;27;20007;-71
2024/04/10 12:31:48;;;;;;;9.13;5.95;;;;;;;13.52;100.00;102603.28;10698249;27;20819;-71
2024/04/10 12:42:01;;;;;;;9.60;5.85;;;;;;;12.80;100.00;102612.19;10722709;26;20013;-70
2024/04/10 12:46:59;;;;;;;10.00;5.85;;;;;;;13.15;100.00;102612.97;10695504;27;20078;-70
2024/04/10 12:51:56;;;;;;;13.63;6.20;;;;;;;13.02;100.00;102619.16;10708501;26;20223;-70
2024/04/10 12:56:53;;;;;;;7.32;6.22;;;;;;;12.84;100.00;102618.75;10719867;26;20003;-70
2024/04/10 13:01:53;;;;;;;10.40;5.95;;;;;;;13.01;100.00;102620.25;10698485;26;20021;-71
2024/04/10 13:06:51;;;;;;;13.25;7.25;;;;;;;15.50;100.00;102619.06;10707207;26;20052;-71
2024/04/10 13:11:48;;;;;;;10.93;6.35;;;;;;;14.29;100.00;102630.63;10710623;27;20458;-71
2024/04/10 13:16:45;;;;;;;9.30;7.18;;;;;;;13.08;100.00;102634.47;10706212;26;20002;-71
2024/04/10 13:21:42;;;;;;;10.25;6.82;;;;;;;12.69;100.00;102643.53;10716613;26;20010;-70
2024/04/10 13:26:40;;;;;;;11.65;6.75;;;;;;;12.48;100.00;102651.09;10706993;27;20010;-71
2024/04/10 13:31:37;;;;;;;10.15;6.35;;;;;;;12.73;100.00;102666.59;10714961;26;20362;-70
2024/04/10 13:36:35;;;;;;;12.60;6.00;;;;;;;12.94;100.00;102667.25;10710321;27;20017;-71
2024/04/10 13:41:32;;;;;;;9.45;5.65;;;;;;;14.28;100.00;102666.72;10713263;27;20089;-70
2024/04/10 13:46:30;;;;;;;10.57;5.70;;;;;;;13.49;100.00;102667.09;10708491;26;20011;-70
2024/04/10 13:51:28;;;;;;;13.27;7.15;;;;;;;13.19;100.00;102681.91;10706112;27;20003;-70
2024/04/10 13:56:25;;;;;;;7.13;5.25;;;;;;;13.50;100.00;102674.22;10704902;26;20011;-70
2024/04/10 14:01:24;;;;;;;13.50;5.53;;;;;;;13.25;100.00;102678.81;10704379;26;20013;-71
2024/04/10 14:06:24;;;;;;;10.18;5.60;;;;;;;14.22;100.00;102673.41;10716295;26;20014;-71
2024/04/10 14:11:22;;;;;;;6.60;5.35;;;;;;;14.26;100.00;102671.69;10703039;27;20438;-71
2024/04/10 14:16:19;;;;;;;7.80;5.10;;;;;;;13.25;100.00;102687.06;10694922;26;19998;-71
2024/04/10 14:21:17;;;;;;;6.35;5.05;;;;;;;13.15;100.00;102673.41;10701840;27;20021;-71
2024/04/10 14:26:16;;;;;;;9.20;5.50;;;;;;;13.52;100.00;102677.50;10707160;26;20021;-71
2024/04/10 14:31:14;;;;;;;9.55;5.65;;;;;;;14.39;100.00;102684.75;10688942;27;20013;-70
2024/04/10 14:36:11;;;;;;;9.63;5.45;;;;;;;14.40;100.00;102680.84;10714298;26;20439;-70
2024/04/10 14:41:09;;;;;;;7.63;5.32;;;;;;;14.52;100.00;102672.97;10708799;26;20003;-70
2024/04/10 14:46:13;;;;;;;6.18;5.32;;;;;;;13.97;100.00;102671.78;10710688;26;20007;-69
2024/04/10 14:51:17;;;;;;;10.60;5.30;;;;;;;13.77;100.00;102684.66;10696737;27;20035;-70
2024/04/10 14:56:15;;;;;;;6.95;4.82;;;;;;;13.80;100.00;102672.25;10700366;26;20015;-70
2024/04/10 15:01:31;;;;;;;9.63;5.68;;;;;;;13.93;100.00;102671.56;10713251;26;20014;-70
2024/04/10 15:06:28;;;;;;;9.30;5.80;;;;;;;14.00;100.00;102690.47;10702549;27;20351;-70
2024/04/10 15:11:27;;;;;;;12.00;6.07;;;;;;;13.93;100.00;102690.81;10718703;26;20018;-72
2024/04/10 15:16:25;;;;;;;10.35;6.72;;;;;;;14.31;100.00;102690.88;10686714;26;20354;-71
2024/04/10 15:21:22;;;;;;;10.43;6.00;;;;;;;15.16;100.00;102686.38;10701435;26;20016;-71
2024/04/10 15:26:19;;;;;;;6.90;5.72;;;;;;;15.16;100.00;102686.38;10674738;26;20021;-71
2024/04/10 15:31:16;;;;;;;7.60;6.00;;;;;;;16.55;100.00;102688.09;10712456;26;20018;-72
2024/04/10 15:36:14;;;;;;;6.97;5.72;;;;;;;17.32;100.00;102697.31;10704217;26;20006;-72
2024/04/10 15:41:12;;;;;;;11.02;5.75;;;;;;;16.44;100.00;102696.91;10736970;26;20007;-72
2024/04/10 15:46:13;;;;;;;9.73;5.57;;;;;;;16.98;100.00;102679.38;10718743;26;20764;-72
2024/04/10 15:51:14;;;;;;;8.38;5.78;;;;;;;15.83;100.00;102688.78;10715655;26;20003;-72
2024/04/10 15:56:12;;;;;;;9.35;5.45;;;;;;;15.80;100.00;102694.88;10710328;26;20066;-73
2024/04/10 16:01:11;;;;;;;8.15;5.22;;;;;;;15.67;100.00;102698.44;10708013;26;20006;-71
2024/04/10 16:06:23;;;;;;;7.40;5.68;;;;;;;14.90;100.00;102692.28;10716908;26;20083;-72
2024/04/10 16:11:22;;;;;;;7.95;5.97;;;;;;;14.34;100.00;102693.03;10718239;26;20018;-73
2024/04/10 16:16:19;;;;;;;8.27;5.53;;;;;;;13.82;100.00;102708.53;10701356;27;20018;-73
2024/04/10 16:21:19;;;;;;;7.88;5.93;;;;;;;14.78;100.00;102708.44;10695870;26;20013;-71
2024/04/10 16:26:23;;;;;;;8.43;5.30;;;;;;;15.86;100.00;102715.75;10697714;26;20006;-73
2024/04/10 16:31:21;;;;;;;14.13;6.13;;;;;;;15.85;100.00;102708.59;10686564;27;20033;-72
2024/04/10 16:36:19;;;;;;;6.22;5.20;;;;;;;15.91;100.00;102707.34;10700239;27;20093;-72
2024/04/10 16:41:17;;;;;;;7.70;6.25;;;;;;;15.94;100.00;102711.44;10699986;26;20003;-73
2024/04/10 16:46:14;;;;;;;11.10;5.90;;;;;;;15.25;100.00;102706.59;10696076;27;20833;-73
2024/04/10 16:51:12;;;;;;;5.82;5.00;;;;;;;15.48;100.00;102704.00;10696389;27;19999;-72
2024/04/10 16:56:19;;;;;;;9.55;6.15;;;;;;;15.77;100.00;102707.34;10712039;27;20014;-72
2024/04/10 17:01:18;;;;;;;7.80;5.40;;;;;;;17.04;100.00;102710.47;10692505;27;20102;-72
2024/04/10 17:06:16;;;;;;;10.95;5.82;;;;;;;15.19;100.00;102702.28;10707657;26;20013;-72
2024/04/10 17:11:16;;;;;;;11.43;5.97;;;;;;;14.25;100.00;102719.56;10717426;26;20025;-72
2024/04/10 17:16:14;;;;;;;7.40;6.07;;;;;;;13.96;100.00;102706.72;10721344;26;20084;-72
2024/04/10 17:26:27;;;;;;;8.52;6.35;;;;;;;13.36;100.00;102708.97;10698586;27;20018;-72
2024/04/10 17:31:24;;;;;;;7.60;5.80;;;;;;;13.40;100.00;102718.28;10713143;26;20474;-73
2024/04/10 17:36:22;;;;;;;10.13;5.50;;;;;;;13.38;100.00;102726.00;10715573;26;20042;-72
2024/04/10 17:41:20;;;;;;;16.15;7.13;;;;;;;13.24;100.00;102726.59;10710111;26;20014;-72
2024/04/10 17:46:17;;;;;;;12.63;5.80;;;;;;;13.12;100.00;102728.91;10702277;27;20002;-72
2024/04/10 17:51:15;;;;;;;8.93;6.07;;;;;;;12.89;100.00;102724.13;10704443;26;20003;-72
2024/04/10 17:56:16;;;;;;;11.07;6.20;;;;;;;12.88;100.00;102738.94;10717281;27;20012;-72
2024/04/10 18:01:14;;;;;;;11.57;6.03;;;;;;;12.79;100.00;102747.81;10708323;26;20350;-72
2024/04/10 18:06:12;;;;;;;9.20;6.38;;;;;;;12.72;100.00;102744.56;10713986;26;20090;-72
2024/04/10 18:11:09;;;;;;;14.90;5.88;;;;;;;12.61;100.00;102753.94;10719425;26;20003;-72
2024/04/10 18:16:07;;;;;;;11.05;5.88;;;;;;;12.43;100.00;102755.38;10720460;26;20005;-72
2024/04/10 18:21:04;;;;;;;11.20;5.80;;;;;;;12.38;100.00;102753.47;10718154;27;20021;-72
2024/04/10 18:26:03;;;;;;;10.80;6.55;;;;;;;12.33;100.00;102767.22;10714260;26;20006;-72
2024/04/10 18:31:04;;;;;;;8.80;6.53;;;;;;;12.21;100.00;102764.78;10694672;26;20081;-73
2024/04/10 18:36:03;;;;;;;9.23;6.28;;;;;;;12.22;100.00;102765.59;10713944;26;20080;-72
2024/04/10 18:41:04;;;;;;;11.35;6.78;;;;;;;12.16;100.00;102761.22;10711454;26;20021;-72
2024/04/10 18:46:03;;;;;;;12.32;6.07;;;;;;;12.13;100.00;102770.84;10704159;26;20006;-72
2024/04/10 18:51:11;;;;;;;10.77;6.45;;;;;;;12.02;100.00;102787.59;10703650;26;20323;-72
2024/04/10 18:56:08;;;;;;;12.13;6.82;;;;;;;11.85;100.00;102782.38;10720105;26;20010;-72
2024/04/10 19:01:05;;;;;;;8.35;5.85;;;;;;;11.81;100.00;102784.84;10716085;26;20006;-72
2024/04/10 19:06:10;;;;;;;11.10;5.90;;;;;;;11.86;100.00;102792.22;10722858;26;20019;-72
2024/04/10 19:11:09;;;;;;;12.07;6.60;;;;;;;11.70;100.00;102797.75;10719414;26;20017;-72
2024/04/10 19:16:06;;;;;;;15.25;6.13;;;;;;;11.42;100.00;102806.47;10708527;26;20431;-72
2024/04/10 19:21:04;;;;;;;14.07;7.88;;;;;;;11.44;100.00;102816.09;10706313;26;20003;-71
2024/04/10 19:26:03;;;;;;;15.02;6.72;;;;;;;11.45;100.00;102816.91;10719223;27;20018;-72
2024/04/10 19:31:02;;;;;;;7.72;6.55;;;;;;;11.47;100.00;102815.53;10711916;27;20476;-73
2024/04/10 19:36:18;;;;;;;11.75;6.95;;;;;;;11.31;100.00;102822.09;10717051;27;20006;-72
2024/04/10 19:41:15;;;;;;;9.93;7.35;;;;;;;11.17;100.00;102821.78;10714142;26;20007;-72
2024/04/10 19:46:14;;;;;;;13.23;6.90;;;;;;;11.04;100.00;102828.59;10708423;26;20455;-72
2024/04/10 19:51:12;;;;;;;9.75;7.25;;;;;;;10.92;100.00;102819.81;10712611;26;20007;-72
2024/04/10 19:56:09;;;;;;;11.40;7.22;;;;;;;10.82;100.00;102817.03;10702609;27;20006;-73
2024/04/10 20:01:10;;;;;;;9.80;7.75;;;;;;;10.62;100.00;102820.50;10724033;26;20002;-72
2024/04/10 20:06:08;;;;;;;11.13;7.63;;;;;;;10.73;100.00;102817.56;10706428;27;20002;-72
2024/04/10 20:11:06;;;;;;;10.32;7.00;;;;;;;10.74;100.00;102813.75;10720614;26;20006;-72
2024/04/10 20:16:09;;;;;;;10.27;7.65;;;;;;;10.52;100.00;102811.16;10713208;27;20025;-72
2024/04/10 20:21:09;;;;;;;9.27;8.15;;;;;;;10.29;100.00;102812.41;10703068;26;20019;-72
2024/04/10 20:26:07;;;;;;;12.18;8.20;;;;;;;10.17;100.00;102825.44;10705315;27;20343;-73
2024/04/10 20:31:11;;;;;;;11.65;8.85;;;;;;;10.02;100.00;102808.94;10696482;26;20474;-70
2024/04/10 20:36:09;;;;;;;9.75;8.10;;;;;;;9.82;100.00;102820.53;10720876;26;20014;-74
2024/04/10 20:41:10;;;;;;;16.00;8.50;;;;;;;9.74;100.00;102821.84;10700668;26;20135;-73
2024/04/10 20:46:08;;;;;;;15.70;9.37;;;;;;;9.70;100.00;102820.72;10701407;26;20618;-74
2024/04/10 20:51:08;;;;;;;14.30;7.93;;;;;;;9.69;100.00;102824.53;10689262;26;20003;-73
2024/04/10 20:56:07;;;;;;;9.95;7.78;;;;;;;9.59;100.00;102824.44;10709171;26;20018;-74
2024/04/10 21:01:08;;;;;;;14.45;7.72;;;;;;;9.57;100.00;102837.53;10711382;26;20106;-74
2024/04/10 22:15:49;;;;;;;11.27;7.40;;;;;;;9.60;100.00;102820.63;10966077;26;20422;-69
2024/04/10 22:26:06;;;;;;;13.27;7.65;;;;;;;9.66;100.00;102830.53;10806543;26;20422;-69
2024/04/10 22:31:03;;;;;;;12.50;7.50;;;;;;;9.62;100.00;102818.47;10815784;26;20081;-71
2024/04/10 22:36:01;;;;;;;7.90;6.82;;;;;;;9.65;100.00;102829.69;10839701;26;20024;-71
2024/04/10 22:40:58;;;;;;;9.20;7.03;;;;;;;9.54;100.00;102846.22;10885917;26;20005;-70
2024/04/10 22:45:55;;;;;;;13.57;7.50;;;;;;;9.51;100.00;102844.84;10797060;26;20020;-71
2024/04/10 22:50:57;;;;;;;9.43;7.55;;;;;;;9.51;100.00;102838.56;10801509;26;20016;-70
2024/04/10 22:55:54;;;;;;;8.90;6.95;;;;;;;9.43;100.00;102827.03;10807901;26;20005;-71
2024/04/10 23:00:51;;;;;;;9.25;7.22;;;;;;;9.38;100.00;102820.72;10840505;26;20008;-71
2024/04/10 23:05:48;;;;;;;8.50;6.63;;;;;;;9.27;100.00;102822.50;10870204;26;20894;-71
2024/04/10 23:10:58;;;;;;;10.07;6.75;;;;;;;9.18;100.00;102829.50;10808566;26;20001;-73
2024/04/10 23:15:55;;;;;;;10.40;6.60;;;;;;;9.15;100.00;102821.84;10805429;26;20694;-72
2024/04/10 23:20:52;;;;;;;11.20;7.07;;;;;;;9.18;100.00;102818.59;10804006;26;20376;-71
2024/04/10 23:25:50;;;;;;;9.60;7.15;;;;;;;9.16;100.00;102815.28;10798687;26;20023;-69
2024/04/10 23:30:47;;;;;;;11.65;6.97;;;;;;;9.17;100.00;102806.03;10818264;26;20053;-70
2024/04/10 23:35:45;;;;;;;9.15;6.97;;;;;;;9.18;100.00;102807.66;10778044;26;20010;-71
2024/04/10 23:40:42;;;;;;;9.57;7.25;;;;;;;9.15;100.00;102811.75;10784734;26;20038;-71
2024/04/10 23:45:39;;;;;;;14.13;7.85;;;;;;;9.18;100.00;102803.03;10778546;26;20002;-72
2024/04/10 23:50:36;;;;;;;15.38;7.60;;;;;;;9.18;100.00;102794.03;10784104;26;20034;-71
2024/04/10 23:55:34;;;;;;;9.38;7.72;;;;;;;9.17;100.00;102795.94;10794393;26;20016;-72
